Airfield :
LOGIN :

Register | Disclaimer

   EN    FR    IT 

 










Legend :    VFR   Marginal VFR   IFR   Intensive IFR   Very Intensive IFR
Visi :
Ceiling :
>= 8 km
>= 3000ft
5 to 8 km
1000 to 3000 ft
1500m to 5 km
500 to 1000 ft
800 to 1500m
200 to 500 ft
< 800m
< 200 ft
Symbols :   Thunderstorms  Fog  Heavy snow  Heavy precipitations  Wind > 20 kt
SIGMETs :     Misc.  Thunderstorms  Icing  Turbulence  Mountain Waves  Volcanic Ashes






- Airport Elevation : 144 ft
- IATA code : PGF


LFMP - Perpignan

CURRENT METAR :
  • 030200Z AUTO VRB02KT 7000 FEW003 BKN011 BKN020 11/10 Q1031

EXPIRED METARs :
  • 030130Z AUTO 07004KT 6000 BKN009 BKN013 OVC019 11/10 Q1031
  • 030100Z AUTO 04005KT 7000 SCT006 OVC011 11/10 Q1031
  • 030030Z AUTO 03004KT 7000 BKN008 BKN013 11/10 Q1031
  • 030000Z AUTO 03005KT 5000 BR BKN009 BKN015 BKN021 10/09 Q1031
  • 022330Z AUTO VRB02KT 6000 FEW007 SCT013 BKN021 10/09 Q1031

TAF AMD TAF LFMP
Valid from the 02 at 15:00 until the 03 at 15:00 UTC


021516Z 0215/0315 08010KT 9999 BKN020
TEMPO 0215/0218 BKN013
BECMG 0218/0220 VRB03KT BKN012
TEMPO 0220/0307 2000 BR BKN004
PROB40
TEMPO 0300/0306 0500 FG VV///
BECMG 0311/0313 09010KT BKN030
ATIS : +33 4 68 63 75 12



MET'MAP, your aeronautical weather chart ! - Copyright ORBIFLY December 2007 - Disclaimer

ORBIFLY MET'MAP TEAM :

Programming & Development : Alexandra Zaïnal
Concept & original design : Baudouin d'Aumeries
Assistance for programming : Marc-Olivier Méhu
Technical & hardware support : Manuel Goepfert

Contact : metmap@orbifly.com




SOURCES & CREDITS :

   NOAA